createdAt,value
2017-08-01T00:00:01.444Z,20.30
2017-08-01T00:04:48.053Z,20.20
2017-08-01T00:09:34.686Z,20.20
2017-08-01T00:14:21.311Z,20.20
2017-08-01T00:19:08.229Z,20.10
2017-08-01T00:23:54.858Z,20.10
2017-08-01T00:28:41.511Z,20.10
2017-08-01T00:33:28.108Z,20.10
2017-08-01T00:38:14.723Z,20.10
2017-08-01T00:43:01.356Z,20.10
2017-08-01T00:47:48.800Z,19.80
2017-08-01T00:52:36.166Z,19.90
2017-08-01T00:57:22.817Z,19.90
2017-08-01T01:02:09.449Z,19.80
2017-08-01T01:06:56.086Z,19.70
2017-08-01T01:11:43.594Z,19.40
2017-08-01T01:16:30.312Z,19.40
2017-08-01T01:21:16.938Z,19.40
2017-08-01T01:26:03.626Z,19.40
2017-08-01T01:30:50.364Z,19.40
2017-08-01T01:35:37.104Z,19.20
2017-08-01T01:40:23.854Z,19.20
2017-08-01T01:45:11.209Z,19.10
2017-08-01T01:49:58.581Z,19.20
2017-08-01T01:54:45.284Z,19.10
2017-08-01T01:59:31.909Z,19.00
2017-08-01T02:04:18.608Z,18.90
2017-08-01T02:09:05.949Z,18.70
2017-08-01T02:13:52.580Z,18.70
2017-08-01T02:18:39.212Z,18.80
2017-08-01T02:23:25.855Z,18.80
2017-08-01T02:28:12.558Z,18.70
2017-08-01T02:32:59.201Z,18.60
2017-08-01T02:37:45.845Z,18.60
2017-08-01T02:42:32.464Z,18.60
2017-08-01T02:47:19.071Z,18.60
2017-08-01T02:52:05.716Z,18.60
2017-08-01T02:56:53.060Z,18.50
2017-08-01T03:01:40.445Z,18.50
2017-08-01T03:06:27.111Z,18.50
2017-08-01T03:11:14.496Z,18.20
2017-08-01T03:16:01.121Z,18.20
2017-08-01T03:20:47.732Z,18.30
2017-08-01T03:25:34.347Z,18.30
2017-08-01T03:30:20.979Z,18.20
2017-08-01T03:35:07.626Z,17.90
2017-08-01T03:39:54.251Z,17.90
2017-08-01T03:44:40.890Z,17.90
2017-08-01T03:49:28.281Z,17.80
2017-08-01T03:54:14.919Z,17.80
2017-08-01T03:59:01.546Z,17.70
2017-08-01T04:03:48.184Z,17.60
2017-08-01T04:08:35.585Z,17.70
2017-08-01T04:13:22.266Z,17.70
2017-08-01T04:18:08.906Z,17.80
2017-08-01T04:22:55.522Z,18.00
2017-08-01T04:27:42.160Z,18.10
2017-08-01T04:32:28.855Z,17.90
2017-08-01T04:37:15.681Z,17.80
2017-08-01T04:42:02.386Z,17.90
2017-08-01T04:46:49.046Z,18.00
2017-08-01T04:51:35.734Z,18.20
2017-08-01T04:56:22.360Z,18.30
2017-08-01T05:01:08.977Z,18.60
2017-08-01T05:05:55.673Z,18.80
2017-08-01T05:10:43.042Z,19.00
2017-08-01T05:15:29.710Z,19.00
2017-08-01T05:20:16.342Z,19.30
2017-08-01T05:25:02.960Z,19.40
2017-08-01T05:29:49.597Z,19.60
2017-08-01T05:34:37.027Z,19.90
2017-08-01T05:39:24.472Z,20.20
2017-08-01T05:44:11.847Z,20.40
2017-08-01T05:48:58.626Z,20.40
2017-08-01T05:53:45.972Z,20.80
2017-08-01T05:58:33.393Z,21.00
2017-08-01T06:03:20.042Z,20.90
2017-08-01T06:08:07.471Z,21.40
2017-08-01T06:12:54.836Z,21.60
2017-08-01T06:17:41.463Z,21.60
2017-08-01T06:22:28.131Z,22.00
2017-08-01T06:27:14.821Z,22.70
2017-08-01T06:32:01.478Z,23.30
2017-08-01T06:36:48.122Z,23.90
2017-08-01T06:41:34.746Z,24.50
2017-08-01T06:46:21.382Z,24.80
2017-08-01T06:51:08.023Z,24.80
2017-08-01T06:55:54.641Z,24.70
2017-08-01T07:00:41.311Z,24.70
2017-08-01T07:05:27.975Z,24.90
2017-08-01T07:10:14.595Z,25.20
2017-08-01T07:15:01.235Z,25.30
2017-08-01T07:19:47.868Z,25.50
2017-08-01T07:24:34.499Z,25.70
2017-08-01T07:29:21.166Z,25.70
2017-08-01T07:34:07.865Z,25.80
2017-08-01T07:38:54.515Z,26.30
2017-08-01T07:43:41.145Z,26.50
2017-08-01T07:48:27.770Z,26.60
2017-08-01T07:53:14.431Z,26.80
2017-08-01T07:58:01.064Z,27.20
2017-08-01T08:02:48.442Z,28.30
2017-08-01T08:07:35.165Z,28.30
2017-08-01T08:12:21.943Z,28.90
2017-08-01T08:17:08.637Z,28.90
2017-08-01T08:21:55.273Z,29.20
2017-08-01T08:26:42.640Z,29.80
2017-08-01T08:31:29.302Z,29.80
2017-08-01T08:36:15.957Z,30.10
2017-08-01T08:41:02.582Z,30.50
2017-08-01T08:45:49.981Z,30.80
2017-08-01T08:50:36.617Z,30.80
2017-08-01T08:55:23.291Z,31.20
2017-08-01T09:00:09.959Z,31.00
2017-08-01T09:04:56.596Z,31.40
2017-08-01T09:09:44.037Z,31.60
2017-08-01T09:14:31.392Z,32.20
2017-08-01T09:19:18.022Z,32.20
2017-08-01T09:24:04.720Z,32.20
2017-08-01T09:28:52.081Z,32.50
2017-08-01T09:33:38.720Z,32.50
2017-08-01T09:38:25.392Z,32.50
2017-08-01T09:43:12.779Z,33.20
2017-08-01T09:47:59.422Z,33.20
2017-08-01T09:52:46.041Z,33.80
2017-08-01T09:57:32.690Z,34.40
2017-08-01T10:02:19.327Z,34.50
2017-08-01T10:07:05.974Z,35.00
2017-08-01T10:11:52.630Z,35.40
2017-08-01T10:16:39.550Z,35.20
2017-08-01T10:21:26.180Z,35.10
2017-08-01T10:26:12.843Z,34.90
2017-08-01T10:30:59.513Z,35.70
2017-08-01T10:35:46.246Z,36.50
2017-08-01T10:40:32.899Z,36.30
2017-08-01T10:45:19.624Z,36.00
2017-08-01T10:50:06.330Z,36.60
2017-08-01T10:54:53.726Z,37.30
2017-08-01T10:59:40.454Z,37.20
2017-08-01T11:04:27.082Z,35.60
2017-08-01T11:09:13.696Z,35.90
2017-08-01T11:14:00.400Z,35.60
2017-08-01T11:18:47.015Z,36.30
2017-08-01T11:23:33.657Z,37.10
2017-08-01T11:28:20.294Z,36.80
2017-08-01T11:33:06.934Z,36.40
2017-08-01T11:37:54.314Z,37.90
2017-08-01T11:42:41.201Z,37.90
2017-08-01T11:47:28.638Z,38.10
2017-08-01T11:52:16.086Z,37.70
2017-08-01T11:57:02.777Z,37.60
2017-08-01T12:01:49.500Z,36.50
2017-08-01T12:06:36.328Z,36.40
2017-08-01T12:11:22.993Z,36.50
2017-08-01T12:16:09.684Z,37.00
2017-08-01T12:20:57.141Z,37.70
2017-08-01T12:25:43.862Z,37.70
2017-08-01T12:30:30.552Z,38.10
2017-08-01T12:35:17.187Z,38.30
2017-08-01T12:40:04.661Z,38.50
2017-08-01T12:44:51.325Z,38.50
2017-08-01T12:49:38.017Z,38.70
2017-08-01T12:54:24.913Z,38.00
2017-08-01T12:59:11.626Z,37.50
2017-08-01T13:03:58.283Z,36.60
2017-08-01T13:08:45.349Z,35.90
2017-08-01T13:13:31.989Z,35.20
2017-08-01T13:18:19.348Z,34.80
2017-08-01T13:23:05.995Z,34.80
2017-08-01T13:27:52.640Z,35.00
2017-08-01T13:32:39.426Z,34.90
2017-08-01T13:37:26.125Z,35.10
2017-08-01T13:42:12.911Z,34.90
2017-08-01T13:46:59.651Z,34.90
2017-08-01T13:51:47.109Z,34.70
2017-08-01T13:56:33.782Z,34.60
2017-08-01T14:01:20.430Z,34.70
2017-08-01T14:06:07.846Z,34.80
2017-08-01T14:10:54.852Z,34.80
2017-08-01T14:15:41.651Z,34.90
2017-08-01T14:20:28.589Z,34.90
2017-08-01T14:25:15.294Z,34.80
2017-08-01T14:30:01.959Z,34.70
2017-08-01T14:34:48.984Z,34.60
2017-08-01T14:39:35.618Z,34.40
2017-08-01T14:44:22.273Z,34.30
2017-08-01T14:49:09.639Z,34.10
2017-08-01T14:53:56.339Z,34.10
2017-08-01T14:58:43.708Z,34.00
2017-08-01T15:03:30.347Z,34.00
2017-08-01T15:08:16.985Z,33.90
2017-08-01T15:13:03.698Z,33.90
2017-08-01T15:17:50.336Z,33.90
2017-08-01T15:22:37.010Z,33.90
2017-08-01T15:27:23.680Z,33.80
2017-08-01T15:32:11.279Z,34.00
2017-08-01T15:36:57.966Z,33.90
2017-08-01T15:41:44.687Z,33.80
2017-08-01T15:46:31.418Z,33.70
2017-08-01T15:51:18.136Z,33.60
2017-08-01T15:56:05.010Z,33.50
2017-08-01T16:00:51.730Z,33.50
2017-08-01T16:05:38.521Z,33.50
2017-08-01T16:10:25.175Z,33.50
2017-08-01T16:15:11.820Z,33.50
2017-08-01T16:19:58.508Z,33.40
2017-08-01T16:24:45.226Z,33.30
2017-08-01T16:29:31.895Z,33.20
2017-08-01T16:34:19.626Z,33.00
2017-08-01T16:39:06.277Z,33.00
2017-08-01T16:43:53.099Z,32.90
2017-08-01T16:48:40.455Z,32.70
2017-08-01T16:53:27.099Z,32.70
2017-08-01T16:58:13.749Z,32.60
2017-08-01T17:03:00.457Z,32.50
2017-08-01T17:07:47.176Z,32.30
2017-08-01T17:12:33.882Z,32.20
2017-08-01T17:17:20.528Z,32.00
2017-08-01T17:22:07.192Z,31.90
2017-08-01T17:26:53.888Z,31.80
2017-08-01T17:31:41.398Z,31.40
2017-08-01T17:36:28.344Z,31.30
2017-08-01T17:41:15.005Z,31.10
2017-08-01T17:46:01.794Z,30.90
2017-08-01T17:50:48.524Z,30.60
2017-08-01T17:55:35.924Z,30.00
2017-08-01T18:00:22.806Z,30.00
2017-08-01T18:05:09.541Z,29.80
2017-08-01T18:09:56.302Z,29.60
2017-08-01T18:14:42.996Z,29.40
2017-08-01T18:19:29.714Z,29.10
2017-08-01T18:24:16.488Z,28.90
2017-08-01T18:29:03.238Z,28.70
2017-08-01T18:33:50.893Z,28.20
2017-08-01T18:38:37.518Z,28.20
2017-08-01T18:43:24.625Z,28.10
2017-08-01T18:48:11.355Z,28.10
2017-08-01T18:52:58.025Z,28.00
2017-08-01T18:57:44.775Z,27.90
2017-08-01T19:02:31.459Z,27.80
2017-08-01T19:07:18.146Z,27.80
2017-08-01T19:12:04.830Z,27.70
2017-08-01T19:16:51.619Z,27.60
2017-08-01T19:21:38.327Z,27.50
2017-08-01T19:26:24.968Z,27.40
2017-08-01T19:31:11.651Z,27.40
2017-08-01T19:35:58.282Z,27.20
2017-08-01T19:40:44.930Z,27.10
2017-08-01T19:45:31.648Z,27.00
2017-08-01T19:50:18.329Z,27.00
2017-08-01T19:55:05.368Z,26.90
2017-08-01T19:59:52.037Z,26.80
2017-08-01T20:04:38.692Z,27.40
2017-08-01T20:09:26.133Z,28.10
2017-08-01T20:14:12.774Z,28.10
2017-08-01T20:18:59.482Z,28.50
2017-08-01T20:23:46.904Z,28.10
2017-08-01T20:28:34.342Z,27.50
2017-08-01T20:33:21.150Z,27.50
2017-08-01T20:38:07.890Z,26.90
2017-08-01T20:42:54.638Z,25.60
2017-08-01T20:47:41.356Z,24.30
2017-08-01T20:52:28.254Z,23.60
2017-08-01T20:57:14.911Z,23.20
2017-08-01T21:02:01.561Z,22.70
2017-08-01T21:06:48.252Z,22.30
2017-08-01T21:11:34.904Z,22.20
2017-08-01T21:16:21.542Z,22.00
2017-08-01T21:21:08.175Z,21.80
2017-08-01T21:25:54.861Z,21.80
2017-08-01T21:30:41.484Z,21.70
2017-08-01T21:35:28.122Z,21.40
2017-08-01T21:40:14.884Z,21.20
2017-08-01T21:45:01.572Z,21.20
2017-08-01T21:49:48.194Z,21.30
2017-08-01T21:54:34.846Z,21.40
2017-08-01T21:59:22.213Z,21.50
2017-08-01T22:04:08.812Z,21.50
2017-08-01T22:08:55.450Z,21.50
2017-08-01T22:13:42.107Z,21.50
2017-08-01T22:18:28.724Z,21.40
2017-08-01T22:23:15.381Z,21.40
2017-08-01T22:28:02.768Z,21.50
2017-08-01T22:32:49.398Z,21.40
2017-08-01T22:37:36.062Z,21.50
2017-08-01T22:42:23.474Z,21.40
2017-08-01T22:47:10.097Z,21.40
2017-08-01T22:51:56.705Z,21.30
2017-08-01T22:56:43.339Z,21.20
2017-08-01T23:01:29.955Z,21.40
2017-08-01T23:06:16.613Z,21.40
2017-08-01T23:11:03.276Z,21.40
2017-08-01T23:15:49.914Z,21.40
2017-08-01T23:20:36.584Z,21.30
2017-08-01T23:25:23.247Z,21.10
2017-08-01T23:30:09.883Z,21.00
2017-08-01T23:34:56.516Z,21.10
2017-08-01T23:39:43.968Z,21.00
2017-08-01T23:44:31.445Z,20.80
2017-08-01T23:49:18.098Z,20.80
2017-08-01T23:54:04.814Z,20.80
2017-08-01T23:58:51.508Z,20.70
